This is the latest recevied weather packets stored in our database for station/object IW1RID-3. If no packets are shown the sender has not sent any weather packets the latest 10 day(s).
| Time | Temp. | Humidity | Pressure | Rain* | Wind** | Luminosity | Snow |
|---|---|---|---|---|---|---|---|
| 1787469522 | 21.11° C | 61% | 1075.2 hPa | - | - | - | - |
| 1787468318 | 20° C | 65% | 1075.1 hPa | - | - | - | - |
| 1787465908 | 19.44° C | 64% | 1074.9 hPa | - | - | - | - |
| 1787464704 | 17.78° C | 72% | 1074.7 hPa | - | - | - | - |
| 1787463499 | 17.78° C | 73% | 1074.7 hPa | - | - | - | - |
| 1787462294 | 17.78° C | 73% | 1074.5 hPa | - | - | - | - |
| 1787461089 | 18.33° C | 70% | 1074.5 hPa | - | - | - | - |
| 1787459884 | 17.78° C | 73% | 1074.2 hPa | - | - | - | - |
| 1787458680 | 17.78° C | 74% | 1074.1 hPa | - | - | - | - |
| 1787457475 | 18.33° C | 73% | 1073.9 hPa | - | - | - | - |
| 1787456270 | 17.78° C | 76% | 1073.9 hPa | - | - | - | - |
| 1787453860 | 18.33° C | 75% | 1073.9 hPa | - | - | - | - |
| 1787452656 | 18.33° C | 74% | 1073.8 hPa | - | - | - | - |
| 1787451451 | 18.33° C | 75% | 1073.9 hPa | - | - | - | - |
| 1787450246 | 18.89° C | 73% | 1073.7 hPa | - | - | - | - |
| 1787449042 | 18.89° C | 73% | 1073.6 hPa | - | - | - | - |
| 1787447837 | 18.89° C | 74% | 1073.3 hPa | - | - | - | - |
| 1787445427 | 19.44° C | 71% | 1073.4 hPa | - | - | - | - |
| 1787444223 | 19.44° C | 71% | 1073.4 hPa | - | - | - | - |
| 1787443018 | 19.44° C | 71% | 1073.4 hPa | - | - | - | - |
| 1787441813 | 19.44° C | 71% | 1073.4 hPa | - | - | - | - |
| 1787440609 | 19.44° C | 70% | 1073.4 hPa | - | - | - | - |
| 1787439404 | 20° C | 69% | 1073.4 hPa | - | - | - | - |
| 1787438200 | 20° C | 69% | 1073.4 hPa | - | - | - | - |
| 1787436995 | 20° C | 69% | 1073.5 hPa | - | - | - | - |
* Rain since midnight (hover to see other rain measurements)
** Current wind speed in m/s (hover to see current wind gust speed)